Data for 11/27/2012

Time Sea-Level Adjusted Pressure Absolute Pressure Temperature Relative Humidity Dew Point   
(mb) (inHg) (mb) (inHg) (C) (F) (%) (C) (F)
00:05 1021 30.15 850 25.1 -5.9 21.4 68 -11 12.3
00:10 1021 30.15 850 25.1 -6.1 21 68 -11.1 12.1
00:15 1021 30.15 850 25.1 -6.2 20.8 68 -11.1 11.9
00:20 1021 30.15 850 25.1 -6.4 20.5 69 -11.2 11.8
00:25 1021 30.15 850 25.1 -6.4 20.4 68 -11.3 11.6
00:30 1020 30.12 850 25.1 -6.1 21 67 -11.3 11.7
00:35 1020 30.12 850 25.1 -6.1 20.9 68 -11.1 12
00:40 1020 30.12 850 25.1 -6.4 20.4 68 -11.4 11.5
00:45 1020 30.12 850 25.1 -6.2 20.8 67 -11.3 11.6
00:50 1021 30.15 850 25.1 -6 21.2 66 -11.4 11.5
00:55 1021 30.15 850 25.1 -5.8 21.6 66 -11.2 11.8
01:00 1021 30.15 850 25.1 -5.9 21.3 67 -11.2 11.9
01:05 1021 30.15 850 25.1 -6.1 21.1 67 -11.2 11.9
01:10 1021 30.15 850 25.1 -6.2 20.8 68 -11.2 11.8
01:15 1021 30.15 850 25.1 -6.3 20.7 67 -11.4 11.4
01:20 1021 30.15 850 25.1 -6 21.3 66 -11.3 11.7
01:25 1021 30.15 850 25.1 -5.8 21.6 65 -11.4 11.5
01:30 1021 30.15 850 25.1 -6 21.2 66 -11.4 11.5
01:35 1021 30.15 850 25.1 -6.1 21 67 -11.3 11.6
01:40 1020 30.12 850 25.1 -6.2 20.8 67 -11.3 11.7
01:45 1021 30.15 850 25.1 -6.4 20.5 69 -11.2 11.8
01:50 1021 30.15 850 25.1 -6.5 20.4 69 -11.3 11.6
01:55 1021 30.15 850 25.1 -6.5 20.4 71 -10.8 12.5
02:00 1021 30.15 850 25.1 -6.1 21 71 -10.5 13.1
02:05 1021 30.15 850 25.1 -6.1 21 73 -10.2 13.7
02:10 1021 30.15 850 25.1 -6.5 20.3 74 -10.3 13.4
02:15 1020 30.12 850 25.1 -6.3 20.6 73 -10.3 13.4
02:20 1020 30.12 850 25.1 -6.2 20.9 73 -10.3 13.4
02:25 1020 30.12 850 25.1 -6.5 20.2 74 -10.4 13.2
02:30 1020 30.12 850 25.1 -7.1 19.3 74 -11 12.2
02:35 1020 30.12 850 25.1 -7 19.4 72 -11.2 11.8
02:40 1020 30.12 850 25.1 -6.8 19.8 71 -11.1 12
02:45 1020 30.12 850 25.1 -6.8 19.8 71 -11.1 12
02:50 1020 30.12 850 25.1 -6.5 20.2 70 -11.2 11.9
02:55 1020 30.12 850 25.1 -6.3 20.7 69 -11.1 12.1
03:00 1020 30.12 850 25.1 -6.2 20.8 69 -11 12.1
03:05 1020 30.12 850 25.1 -6.3 20.7 69 -11.1 12
03:10 1020 30.12 850 25.1 -6.3 20.7 69 -11.1 12.1
03:15 1020 30.12 850 25.1 -6.3 20.6 69 -11.1 12
03:20 1020 30.12 850 25.1 -6.4 20.5 70 -11.1 12.1
03:25 1020 30.12 850 25.1 -6.6 20.2 70 -11.1 12
03:30 1020 30.12 850 25.1 -6.6 20.1 70 -11.2 11.8
03:35 1020 30.12 850 25.1 -6.4 20.4 69 -11.1 12
03:40 1021 30.15 850 25.1 -6.5 20.3 70 -11.1 11.9
03:45 1021 30.15 850 25.1 -6.4 20.5 69 -11.2 11.8
03:50 1020 30.12 850 25.1 -6.1 21.1 67 -11.3 11.7
03:55 1020 30.12 850 25.1 -5.7 21.7 65 -11.2 11.8
04:00 1020 30.12 850 25.1 -5.5 22.1 65 -11.2 11.9
04:05 1020 30.12 850 25.1 -5.4 22.2 65 -11 12.1
04:10 1020 30.12 850 25.1 -5.2 22.6 64 -11 12.3
04:15 1020 30.12 850 25.1 -5.4 22.3 65 -10.9 12.3
04:20 1020 30.12 850 25.1 -5.7 21.7 66 -11 12.2
04:25 1020 30.12 850 25.1 -6 21.3 68 -11 12.3
04:30 1020 30.12 850 25.1 -6 21.1 67 -11.1 12
04:35 1020 30.12 850 25.1 -6.1 21.1 68 -11 12.2
04:40 1020 30.12 850 25.1 -6.1 21 68 -11.1 12
04:45 1020 30.12 850 25.1 -6.1 21 67 -11.2 11.8
04:50 1020 30.12 850 25.1 -6.1 21 68 -11.1 12.1
04:55 1020 30.12 850 25.1 -6.3 20.6 69 -11.2 11.9
05:00 1020 30.12 850 25.1 -6.4 20.5 69 -11.2 11.8
05:05 1020 30.12 850 25.1 -6.4 20.5 69 -11.2 11.9
05:10 1020 30.12 850 25.1 -6.4 20.6 68 -11.4 11.5
05:15 1020 30.12 850 25.1 -6 21.1 67 -11.3 11.7
05:20 1020 30.12 850 25.1 -6.1 21 67 -11.3 11.6
05:25 1020 30.12 850 25.1 -6.1 21.1 69 -10.8 12.6
05:30 1020 30.12 850 25.1 -6 21.2 71 -10.6 13
05:35 1020 30.12 850 25.1 -6.5 20.3 74 -10.4 13.3
05:40 1020 30.12 850 25.1 -6.6 20.1 75 -10.4 13.3
05:45 1020 30.12 850 25.1 -6.8 19.7 76 -10.5 13.2
05:50 1020 30.12 850 25.1 -7.2 19 77 -10.5 13.1
05:55 1020 30.12 850 25.1 -7.4 18.6 79 -10.5 13.1
06:00 1020 30.12 850 25.1 -7.5 18.5 79 -10.5 13.2
06:05 1020 30.12 850 25.1 -7.3 18.8 79 -10.3 13.5
06:10 1020 30.12 850 25.1 -7 19.4 78 -10.2 13.7
06:15 1020 30.12 850 25.1 -6.5 20.3 75 -10.2 13.7
06:20 1020 30.12 850 25.1 -6.1 20.9 74 -10 14
06:25 1021 30.15 850 25.1 -6 21.2 74 -10 14
06:30 1021 30.15 850 25.1 -5.9 21.4 74 -9.8 14.4
06:35 1021 30.15 850 25.1 -6.1 21.1 74 -9.9 14.1
06:40 1021 30.15 850 25.1 -6 21.2 74 -9.9 14.1
06:45 1021 30.15 850 25.1 -6 21.1 74 -9.9 14.2
06:50 1021 30.15 850 25.1 -6.1 20.9 75 -9.9 14.2
06:55 1021 30.15 850 25.1 -6.3 20.6 76 -9.9 14.1
07:00 1021 30.15 850 25.1 -6.4 20.4 77 -9.9 14.2
07:05 1021 30.15 850 25.1 -6.4 20.4 77 -9.9 14.2
07:10 1021 30.15 850 25.1 -6.3 20.6 76 -9.9 14.1
07:15 1021 30.15 850 25.1 -6.2 20.8 76 -9.8 14.3
07:20 1021 30.15 850 25.1 -6.1 21 74 -10 14
07:25 1021 30.15 850 25.1 -5.9 21.3 73 -9.9 14.1
07:30 1021 30.15 850 25.1 -5.9 21.3 74 -9.8 14.4
07:35 1021 30.15 850 25.1 -6.1 21.1 74 -10.1 13.9
07:40 1021 30.15 850 25.1 -6 21.3 73 -10 14
07:45 1021 30.15 850 25.1 -6.2 20.9 74 -10.1 13.7
07:50 1021 30.15 850 25.1 -6 21.1 73 -10 13.9
07:55 1021 30.15 850 25.1 -6 21.2 73 -10.2 13.6
08:00 1021 30.15 850 25.1 -6 21.2 72 -10.2 13.7
08:05 1021 30.15 850 25.1 -6 21.3 73 -10.1 13.8
08:10 1021 30.15 850 25.1 -6.2 20.8 74 -10.1 13.7
08:15 1021 30.15 850 25.1 -6.2 20.9 74 -10.2 13.7
08:20 1021 30.15 850 25.1 -6.1 21 72 -10.3 13.5
08:25 1021 30.15 850 25.1 -6 21.1 73 -10.1 13.8
08:30 1021 30.15 850 25.1 -5.9 21.4 72 -10.1 13.7
08:35 1021 30.15 850 25.1 -5.7 21.7 72 -10.1 13.9
08:40 1021 30.15 850 25.1 -6 21.2 74 -10 14
08:45 1021 30.15 850 25.1 -6.2 20.9 74 -10 14
08:50 1021 30.15 850 25.1 -6.2 20.8 75 -9.9 14.1
08:55 1021 30.15 851 25.13 -6.2 20.9 74 -10 13.9
09:00 1021 30.15 851 25.13 -5.8 21.6 71 -10.3 13.5
09:05 1021 30.15 851 25.13 -5.6 22 70 -10.1 13.7
09:10 1021 30.15 851 25.13 -5.4 22.2 70 -10.1 13.8
09:15 1021 30.15 851 25.13 -5.4 22.3 70 -10 14
09:20 1022 30.18 851 25.13 -5.3 22.5 69 -10.2 13.7
09:25 1022 30.18 851 25.13 -5.1 22.7 68 -10.2 13.7
09:30 1022 30.18 851 25.13 -5 23 67 -10.2 13.7
09:35 1022 30.18 851 25.13 -4.9 23.2 67 -10.1 13.8
09:40 1022 30.18 851 25.13 -5 23.1 67 -10.1 13.8
09:45 1022 30.18 851 25.13 -5 23.1 68 -10 14
09:50 1022 30.18 851 25.13 -4.9 23.1 67 -10.2 13.7
09:55 1022 30.18 851 25.13 -4.8 23.3 66 -10.2 13.6
10:00 1022 30.18 851 25.13 -4.6 23.6 65 -10.2 13.7
10:05 1022 30.18 851 25.13 -4.3 24.2 64 -10.1 13.8
10:10 1022 30.18 851 25.13 -3.9 24.9 63 -9.9 14.2
10:15 1022 30.18 851 25.13 -3.8 25.2 63 -9.9 14.2
10:20 1022 30.18 851 25.13 -3.4 25.9 62 -9.8 14.4
10:25 1022 30.18 851 25.13 -3 26.6 61 -9.5 14.9
10:30 1022 30.18 851 25.13 -2.6 27.3 60 -9.4 15.1
10:35 1022 30.18 851 25.13 -2.2 28 58 -9.3 15.3
10:40 1022 30.18 851 25.13 -1.5 29.4 56 -9.2 15.4
10:45 1022 30.18 851 25.13 -1.5 29.3 57 -8.9 15.9
10:50 1022 30.18 851 25.13 -1.5 29.3 58 -8.8 16.2
10:55 1022 30.18 851 25.13 -1.5 29.4 58 -8.8 16.2
11:00 1022 30.18 851 25.13 -1 30.1 55 -8.9 16
11:05 1022 30.18 851 25.13 -1.1 30 55 -9.1 15.6
11:10 1022 30.18 851 25.13 -1 30.3 54 -9.1 15.7
11:15 1022 30.18 851 25.13 -0.7 30.8 53 -9.1 15.6
11:20 1022 30.18 851 25.13 -0.1 31.8 51 -9.1 15.5
11:25 1022 30.18 851 25.13 0.5 32.9 48 -9.2 15.5
11:30 1022 30.18 851 25.13 0.6 33 50 -8.7 16.3
11:35 1022 30.18 851 25.13 0.3 32.6 51 -8.6 16.5
11:40 1022 30.18 851 25.13 0.4 32.6 51 -8.7 16.3
11:45 1022 30.18 851 25.13 0.7 33.3 50 -8.5 16.6
11:50 1022 30.18 851 25.13 1.1 34 48 -8.7 16.3
11:55 1022 30.18 851 25.13 1 33.9 48 -8.7 16.4
12:00 1022 30.18 851 25.13 1.4 34.5 48 -8.4 16.9
12:05 1022 30.18 851 25.13 1.5 34.6 48 -8.5 16.8
12:10 1022 30.18 851 25.13 0.9 33.7 50 -8.3 17.1
12:15 1022 30.18 851 25.13 1.2 34.1 49 -8.4 16.9
12:20 1022 30.18 851 25.13 1.6 34.8 49 -8.1 17.4
12:25 1022 30.18 851 25.13 1.8 35.3 47 -8.4 16.9
12:30 1022 30.18 851 25.13 1.7 35.1 47 -8.5 16.7
12:35 1022 30.18 851 25.13 2.2 35.9 44 -8.8 16.2
12:40 1022 30.18 851 25.13 2.2 36 46 -8.1 17.4
12:45 1022 30.18 851 25.13 1.7 35.1 48 -8.1 17.4
12:50 1022 30.18 851 25.13 1.6 34.9 49 -8 17.5
12:55 1022 30.18 851 25.13 1.6 34.9 49 -7.9 17.7
13:00 1022 30.18 851 25.13 2.2 35.9 49 -7.5 18.6
13:05 1022 30.18 851 25.13 2.1 35.8 49 -7.5 18.6
13:10 1021 30.15 851 25.13 2.3 36.2 50 -7.2 19.1
13:15 1022 30.18 851 25.13 2.4 36.3 50 -6.9 19.6
13:20 1022 30.18 851 25.13 1.8 35.3 52 -7.1 19.3
13:25 1021 30.15 851 25.13 1.6 34.9 50 -7.6 18.3
13:30 1021 30.15 851 25.13 1.8 35.3 50 -7.6 18.4
13:35 1021 30.15 851 25.13 1.6 34.8 49 -8 17.7
13:40 1021 30.15 851 25.13 2 35.7 48 -7.8 18
13:45 1021 30.15 851 25.13 2.3 36.1 47 -8 17.6
13:50 1021 30.15 851 25.13 2 35.5 47 -8.3 17.1
13:55 1021 30.15 851 25.13 1.8 35.2 49 -7.8 18
14:00 1021 30.15 851 25.13 2 35.6 47 -8.3 17.1
14:05 1021 30.15 851 25.13 2.6 36.6 46 -7.8 18
14:10 1021 30.15 851 25.13 2.8 37 46 -7.9 17.9
14:15 1021 30.15 851 25.13 2.9 37.3 45 -7.9 17.8
14:20 1021 30.15 851 25.13 3.2 37.8 42 -8.5 16.6
14:25 1021 30.15 851 25.13 2.8 37 44 -8.3 17
14:30 1021 30.15 851 25.13 2.6 36.7 44 -8.3 17
14:35 1021 30.15 850 25.1 2.2 36 46 -8.3 17
14:40 1021 30.15 850 25.1 2.1 35.8 46 -8.3 17.1
14:45 1021 30.15 850 25.1 1.6 34.8 48 -8.3 17.1
14:50 1021 30.15 850 25.1 1.6 34.9 48 -8.4 17
14:55 1021 30.15 850 25.1 1.5 34.6 50 -8 17.6
15:00 1021 30.15 850 25.1 1.8 35.2 48 -8.2 17.2
15:05 1021 30.15 850 25.1 1.9 35.5 49 -7.8 18
15:10 1021 30.15 850 25.1 1.7 35 47 -8.4 16.8
15:15 1021 30.15 850 25.1 2.2 36 47 -8 17.6
15:20 1021 30.15 850 25.1 2.5 36.6 46 -7.9 17.9
15:25 1021 30.15 850 25.1 2.4 36.3 46 -8 17.5
15:30 1021 30.15 850 25.1 3 37.5 46 -7.5 18.4
15:35 1021 30.15 850 25.1 3.3 38 41 -8.8 16.2
15:40 1021 30.15 850 25.1 3.1 37.5 43 -8.3 17
15:45 1021 30.15 850 25.1 3.2 37.8 43 -8.2 17.3
15:50 1021 30.15 850 25.1 3.4 38.1 42 -8.3 17
15:55 1021 30.15 850 25.1 3.5 38.3 42 -8.3 17
16:00 1021 30.15 850 25.1 2.8 37.1 44 -8.3 17.1
16:05 1021 30.15 850 25.1 2.7 36.8 43 -8.6 16.5
16:10 1021 30.15 850 25.1 2.7 36.8 44 -8.3 17
16:15 1021 30.15 850 25.1 2.3 36.2 46 -8.3 17.1
16:20 1021 30.15 850 25.1 2.3 36.1 45 -8.5 16.7
16:25 1021 30.15 850 25.1 2.4 36.3 45 -8.5 16.7
16:30 1021 30.15 850 25.1 2.5 36.4 44 -8.5 16.8
16:35 1021 30.15 850 25.1 2.6 36.7 45 -8.2 17.3
16:40 1021 30.15 850 25.1 2.5 36.4 45 -8.2 17.2
16:45 1021 30.15 850 25.1 2 35.7 46 -8.3 17.1
16:50 1021 30.15 850 25.1 1.9 35.4 46 -8.5 16.7
16:55 1021 30.15 850 25.1 2 35.6 46 -8.3 17
17:00 1021 30.15 850 25.1 2 35.6 48 -7.8 17.9
17:05 1021 30.15 850 25.1 1.9 35.4 48 -8.1 17.5
17:10 1021 30.15 850 25.1 1.9 35.3 49 -7.9 17.8
17:15 1021 30.15 850 25.1 1.8 35.2 50 -7.7 18.1
17:20 1021 30.15 850 25.1 1.5 34.7 50 -7.8 17.9
17:25 1021 30.15 850 25.1 1.1 34 51 -8 17.6
17:30 1021 30.15 850 25.1 0.9 33.6 51 -8.1 17.3
17:35 1021 30.15 850 25.1 0.7 33.2 51 -8.3 17.1
17:40 1021 30.15 850 25.1 0.6 33 51 -8.3 17
17:45 1021 30.15 850 25.1 0.5 33 53 -8 17.7
17:50 1021 30.15 850 25.1 0.4 32.8 54 -7.9 17.7
17:55 1021 30.15 850 25.1 0.4 32.7 54 -7.9 17.8
18:00 1021 30.15 850 25.1 0.3 32.5 54 -8 17.6
18:05 1021 30.15 850 25.1 0.4 32.6 54 -7.8 18
18:10 1021 30.15 850 25.1 0.5 32.9 55 -7.6 18.4
18:15 1021 30.15 850 25.1 0.4 32.7 55 -7.6 18.4
18:20 1021 30.15 850 25.1 0.3 32.5 56 -7.4 18.6
18:25 1021 30.15 850 25.1 0.2 32.3 57 -7.3 18.8
18:30 1021 30.15 850 25.1 0.1 32.1 58 -7.3 18.8
18:35 1021 30.15 850 25.1 -0.1 31.8 60 -7 19.5
18:40 1021 30.15 850 25.1 -0.4 31.4 60 -7.2 19.1
18:45 1021 30.15 850 25.1 -0.3 31.4 57 -8 17.7
18:50 1021 30.15 850 25.1 -0.3 31.4 60 -7.2 19
18:55 1021 30.15 850 25.1 -0.3 31.5 61 -6.9 19.6
19:00 1021 30.15 850 25.1 -0.4 31.3 62 -6.7 19.9
19:05 1021 30.15 850 25.1 -0.4 31.3 62 -6.7 19.9
19:10 1021 30.15 850 25.1 -0.6 31 64 -6.6 20.1
19:15 1021 30.15 850 25.1 -1.1 29.9 66 -6.7 20
19:20 1021 30.15 850 25.1 -1.5 29.3 66 -7 19.4
19:25 1021 30.15 850 25.1 -1.6 29.1 65 -7.3 18.9
19:30 1021 30.15 850 25.1 -1.4 29.4 60 -8.1 17.3
19:35 1021 30.15 850 25.1 -0.9 30.3 60 -7.7 18.2
19:40 1021 30.15 850 25.1 -1 30.1 61 -7.7 18.2
19:45 1021 30.15 850 25.1 -1.3 29.7 63 -7.5 18.6
19:50 1021 30.15 850 25.1 -1.4 29.4 63 -7.7 18.2
19:55 1021 30.15 850 25.1 -1.6 29.1 62 -7.9 17.8
20:00 1021 30.15 850 25.1 -1.4 29.5 61 -7.9 17.8
20:05 1021 30.15 850 25.1 -1.2 29.8 61 -7.9 17.8
20:10 1021 30.15 850 25.1 -1.2 29.8 63 -7.3 18.8
20:15 1021 30.15 850 25.1 -1.4 29.5 65 -7.1 19.3
20:20 1021 30.15 850 25.1 -1.8 28.8 67 -7.1 19.3
20:25 1021 30.15 850 25.1 -1.9 28.6 68 -7.1 19.3
20:30 1021 30.15 850 25.1 -2.1 28.3 68 -7.1 19.2
20:35 1021 30.15 850 25.1 -2.1 28.2 69 -7.1 19.2
20:40 1021 30.15 850 25.1 -2 28.5 68 -7.2 19.1
20:45 1021 30.15 850 25.1 -2 28.5 68 -7.1 19.2
20:50 1021 30.15 850 25.1 -2 28.5 68 -7.1 19.2
20:55 1021 30.15 850 25.1 -1.8 28.8 65 -7.5 18.4
21:00 1021 30.15 850 25.1 -1.5 29.2 64 -7.6 18.4
21:05 1021 30.15 850 25.1 -1.7 29 65 -7.5 18.6
21:10 1021 30.15 850 25.1 -1.8 28.8 66 -7.3 18.8
21:15 1021 30.15 850 25.1 -2.2 28 69 -7.1 19.2
21:20 1021 30.15 850 25.1 -2.1 28.2 67 -7.5 18.4
21:25 1021 30.15 850 25.1 -1.7 29 64 -7.5 18.4
21:30 1021 30.15 850 25.1 -1.8 28.8 66 -7.3 18.8
21:35 1021 30.15 850 25.1 -2 28.4 66 -7.5 18.5
21:40 1021 30.15 850 25.1 -2.1 28.2 67 -7.5 18.6
21:45 1021 30.15 850 25.1 -2.2 28 66 -7.7 18.1
21:50 1021 30.15 850 25.1 -2.3 27.9 67 -7.7 18.2
21:55 1021 30.15 850 25.1 -2 28.4 64 -7.9 17.8
22:00 1021 30.15 850 25.1 -1.6 29.2 62 -7.9 17.7
22:05 1020 30.12 850 25.1 -1.5 29.3 62 -7.9 17.8
22:10 1020 30.12 850 25.1 -1.5 29.3 62 -7.9 17.8
22:15 1020 30.12 850 25.1 -1.4 29.5 61 -7.9 17.7
22:20 1020 30.12 850 25.1 -1.3 29.6 60 -8.1 17.4
22:25 1020 30.12 850 25.1 -1.2 29.8 60 -7.9 17.7
22:30 1020 30.12 850 25.1 -1.2 29.8 60 -8.1 17.4
22:35 1020 30.12 850 25.1 -1.2 29.9 60 -8.1 17.5
22:40 1020 30.12 849 25.07 -1.1 30.1 58 -8.3 17.1
22:45 1020 30.12 850 25.1 -0.8 30.6 57 -8.3 17
22:50 1020 30.12 849 25.07 -0.8 30.5 58 -8.2 17.3
22:55 1020 30.12 849 25.07 -1 30.1 59 -8.1 17.4
23:00 1020 30.12 849 25.07 -1.2 29.9 59 -8.2 17.3
23:05 1020 30.12 849 25.07 -1.2 29.8 60 -8 17.5
23:10 1020 30.12 849 25.07 -1.4 29.4 60 -8.2 17.3
23:15 1020 30.12 849 25.07 -1.4 29.5 59 -8.4 16.9
23:20 1020 30.12 849 25.07 -1 30.1 57 -8.5 16.7
23:25 1020 30.12 849 25.07 -0.8 30.7 57 -8.1 17.3
23:30 1020 30.12 849 25.07 -0.8 30.5 58 -8 17.5
23:35 1020 30.12 849 25.07 -0.9 30.4 59 -8 17.6
23:40 1020 30.12 849 25.07 -0.8 30.5 58 -8.2 17.3
23:45 1020 30.12 849 25.07 -0.7 30.7 57 -8.1 17.4
23:50 1020 30.12 849 25.07 -0.7 30.8 57 -8.1 17.4
23:55 1020 30.12 849 25.07 -0.7 30.8 57 -8.2 17.2
24:00 1020 30.12 849 25.07 -0.7 30.7 58 -8.1 17.4